sensor_id;sensor_type;location;lat;lon;timestamp;pressure;altitude;pressure_sealevel;temperature;humidity
26083;BME280;13848;49.018;12.078;2023-02-22T00:01:43;97686.50;;;5.80;75.74
26083;BME280;13848;49.018;12.078;2023-02-22T00:04:09;97687.09;;;5.75;75.37
26083;BME280;13848;49.018;12.078;2023-02-22T00:06:35;97680.38;;;5.65;75.54
26083;BME280;13848;49.018;12.078;2023-02-22T00:09:01;97674.56;;;5.61;75.32
26083;BME280;13848;49.018;12.078;2023-02-22T00:11:27;97683.00;;;5.58;76.65
26083;BME280;13848;49.018;12.078;2023-02-22T00:13:53;97678.91;;;5.62;75.78
26083;BME280;13848;49.018;12.078;2023-02-22T00:16:22;97677.44;;;5.59;75.79
26083;BME280;13848;49.018;12.078;2023-02-22T00:18:48;97675.72;;;5.52;75.74
26083;BME280;13848;49.018;12.078;2023-02-22T00:21:15;97678.22;;;5.53;75.47
26083;BME280;13848;49.018;12.078;2023-02-22T00:23:42;97683.16;;;5.56;75.13
26083;BME280;13848;49.018;12.078;2023-02-22T00:26:09;97669.56;;;5.51;75.01
26083;BME280;13848;49.018;12.078;2023-02-22T00:28:35;97668.75;;;5.51;74.85
26083;BME280;13848;49.018;12.078;2023-02-22T00:31:01;97673.97;;;5.44;75.22
26083;BME280;13848;49.018;12.078;2023-02-22T00:33:28;97675.28;;;5.48;75.80
26083;BME280;13848;49.018;12.078;2023-02-22T00:35:54;97673.09;;;5.37;75.88
26083;BME280;13848;49.018;12.078;2023-02-22T00:38:20;97669.41;;;5.38;76.04
26083;BME280;13848;49.018;12.078;2023-02-22T00:40:46;97672.47;;;5.35;76.19
26083;BME280;13848;49.018;12.078;2023-02-22T00:43:12;97666.22;;;5.28;76.44
26083;BME280;13848;49.018;12.078;2023-02-22T00:45:38;97667.47;;;5.32;75.87
26083;BME280;13848;49.018;12.078;2023-02-22T00:48:05;97660.13;;;5.34;75.04
26083;BME280;13848;49.018;12.078;2023-02-22T00:50:32;97669.78;;;5.35;76.04
26083;BME280;13848;49.018;12.078;2023-02-22T00:52:59;97665.47;;;5.34;75.78
26083;BME280;13848;49.018;12.078;2023-02-22T00:55:28;97658.72;;;5.38;75.94
26083;BME280;13848;49.018;12.078;2023-02-22T00:57:55;97658.22;;;5.28;75.88
26083;BME280;13848;49.018;12.078;2023-02-22T01:00:22;97663.84;;;5.18;76.24
26083;BME280;13848;49.018;12.078;2023-02-22T01:02:49;97665.03;;;5.16;76.22
26083;BME280;13848;49.018;12.078;2023-02-22T01:05:20;97656.03;;;5.17;76.69
26083;BME280;13848;49.018;12.078;2023-02-22T01:07:50;97663.22;;;5.16;75.90
26083;BME280;13848;49.018;12.078;2023-02-22T01:10:18;97661.38;;;5.17;76.79
26083;BME280;13848;49.018;12.078;2023-02-22T01:12:45;97652.31;;;5.18;76.16
26083;BME280;13848;49.018;12.078;2023-02-22T01:15:11;97658.78;;;5.08;76.51
26083;BME280;13848;49.018;12.078;2023-02-22T01:17:39;97657.13;;;5.07;76.93
26083;BME280;13848;49.018;12.078;2023-02-22T01:20:08;97652.19;;;5.04;76.33
26083;BME280;13848;49.018;12.078;2023-02-22T01:22:34;97658.16;;;5.06;75.59
26083;BME280;13848;49.018;12.078;2023-02-22T01:25:02;97657.13;;;5.07;76.44
26083;BME280;13848;49.018;12.078;2023-02-22T01:27:28;97651.16;;;5.05;76.13
26083;BME280;13848;49.018;12.078;2023-02-22T01:29:54;97658.16;;;4.92;76.07
26083;BME280;13848;49.018;12.078;2023-02-22T01:32:20;97647.78;;;4.82;76.97
26083;BME280;13848;49.018;12.078;2023-02-22T01:34:46;97651.09;;;4.84;76.45
26083;BME280;13848;49.018;12.078;2023-02-22T01:37:12;97652.75;;;4.85;76.37
26083;BME280;13848;49.018;12.078;2023-02-22T01:39:38;97648.44;;;4.84;76.98
26083;BME280;13848;49.018;12.078;2023-02-22T01:42:06;97647.78;;;4.82;76.93
26083;BME280;13848;49.018;12.078;2023-02-22T01:44:34;97640.25;;;4.71;76.28
26083;BME280;13848;49.018;12.078;2023-02-22T01:47:01;97642.34;;;4.90;79.71
26083;BME280;13848;49.018;12.078;2023-02-22T01:49:34;97638.28;;;4.94;76.34
26083;BME280;13848;49.018;12.078;2023-02-22T01:52:05;97647.13;;;4.95;75.75
26083;BME280;13848;49.018;12.078;2023-02-22T01:54:34;97646.66;;;4.91;75.70
26083;BME280;13848;49.018;12.078;2023-02-22T01:57:07;97638.09;;;4.81;76.15
26083;BME280;13848;49.018;12.078;2023-02-22T01:59:41;97639.69;;;4.61;75.83
26083;BME280;13848;49.018;12.078;2023-02-22T02:02:08;97642.47;;;4.52;76.86
26083;BME280;13848;49.018;12.078;2023-02-22T02:04:34;97628.91;;;4.69;76.97
26083;BME280;13848;49.018;12.078;2023-02-22T02:07:03;97629.19;;;4.74;76.42
26083;BME280;13848;49.018;12.078;2023-02-22T02:09:33;97624.22;;;4.71;76.03
26083;BME280;13848;49.018;12.078;2023-02-22T02:12:01;97619.56;;;4.58;76.67
26083;BME280;13848;49.018;12.078;2023-02-22T02:14:28;97623.50;;;4.47;77.05
26083;BME280;13848;49.018;12.078;2023-02-22T02:16:54;97621.81;;;4.46;76.48
26083;BME280;13848;49.018;12.078;2023-02-22T02:19:27;97616.88;;;4.43;76.80
26083;BME280;13848;49.018;12.078;2023-02-22T02:22:22;97626.63;;;4.36;76.46
26083;BME280;13848;49.018;12.078;2023-02-22T02:31:24;97625.50;;;4.45;76.34
26083;BME280;13848;49.018;12.078;2023-02-22T02:34:00;97615.97;;;4.36;77.54
26083;BME280;13848;49.018;12.078;2023-02-22T02:36:30;97612.53;;;4.13;78.44
26083;BME280;13848;49.018;12.078;2023-02-22T02:39:04;97613.75;;;4.25;78.45
26083;BME280;13848;49.018;12.078;2023-02-22T02:41:34;97612.53;;;4.27;77.25
26083;BME280;13848;49.018;12.078;2023-02-22T02:44:04;97607.28;;;4.34;77.06
26083;BME280;13848;49.018;12.078;2023-02-22T02:46:38;97605.56;;;4.26;77.53
26083;BME280;13848;49.018;12.078;2023-02-22T02:49:11;97598.09;;;4.22;77.43
26083;BME280;13848;49.018;12.078;2023-02-22T02:51:43;97596.44;;;4.21;77.99
26083;BME280;13848;49.018;12.078;2023-02-22T02:54:12;97604.38;;;4.29;77.09
26083;BME280;13848;49.018;12.078;2023-02-22T02:56:39;97595.34;;;4.30;77.57
26083;BME280;13848;49.018;12.078;2023-02-22T02:59:23;97588.09;;;4.24;77.90
26083;BME280;13848;49.018;12.078;2023-02-22T03:02:08;97584.13;;;4.20;77.28
26083;BME280;13848;49.018;12.078;2023-02-22T03:05:01;97584.38;;;4.10;77.58
26083;BME280;13848;49.018;12.078;2023-02-22T03:07:43;97580.25;;;4.08;77.61
26083;BME280;13848;49.018;12.078;2023-02-22T03:10:22;97583.28;;;4.05;77.58
26083;BME280;13848;49.018;12.078;2023-02-22T03:12:56;97582.38;;;4.12;76.94
26083;BME280;13848;49.018;12.078;2023-02-22T03:15:34;97577.94;;;4.05;77.60
26083;BME280;13848;49.018;12.078;2023-02-22T03:18:04;97578.84;;;3.97;78.04
26083;BME280;13848;49.018;12.078;2023-02-22T03:20:40;97578.66;;;3.98;77.32
26083;BME280;13848;49.018;12.078;2023-02-22T03:23:13;97578.03;;;3.96;77.39
26083;BME280;13848;49.018;12.078;2023-02-22T03:25:47;97575.06;;;3.91;77.35
26083;BME280;13848;49.018;12.078;2023-02-22T03:28:16;97573.78;;;3.87;76.95
26083;BME280;13848;49.018;12.078;2023-02-22T03:30:47;97574.59;;;3.88;77.59
26083;BME280;13848;49.018;12.078;2023-02-22T03:33:16;97574.72;;;3.94;77.26
26083;BME280;13848;49.018;12.078;2023-02-22T03:35:49;97571.69;;;3.97;77.75
26083;BME280;13848;49.018;12.078;2023-02-22T03:38:18;97579.22;;;3.94;76.83
26083;BME280;13848;49.018;12.078;2023-02-22T03:40:48;97576.72;;;3.92;77.29
26083;BME280;13848;49.018;12.078;2023-02-22T03:43:17;97572.22;;;3.93;76.79
26083;BME280;13848;49.018;12.078;2023-02-22T03:45:47;97568.00;;;3.84;77.42
26083;BME280;13848;49.018;12.078;2023-02-22T03:48:19;97572.50;;;3.83;77.26
26083;BME280;13848;49.018;12.078;2023-02-22T03:50:49;97579.84;;;3.81;77.29
26083;BME280;13848;49.018;12.078;2023-02-22T03:53:16;97577.19;;;3.81;77.38
26083;BME280;13848;49.018;12.078;2023-02-22T03:55:43;97576.06;;;3.76;77.48
26083;BME280;13848;49.018;12.078;2023-02-22T03:58:10;97576.16;;;3.82;77.74
26083;BME280;13848;49.018;12.078;2023-02-22T04:00:38;97574.88;;;3.78;77.37
26083;BME280;13848;49.018;12.078;2023-02-22T04:03:04;97578.19;;;3.80;77.20
26083;BME280;13848;49.018;12.078;2023-02-22T04:05:30;97576.88;;;3.76;77.99
26083;BME280;13848;49.018;12.078;2023-02-22T04:07:57;97571.84;;;3.66;77.78
26083;BME280;13848;49.018;12.078;2023-02-22T04:10:24;97572.56;;;3.75;77.47
26083;BME280;13848;49.018;12.078;2023-02-22T04:12:50;97578.63;;;3.69;77.53
26083;BME280;13848;49.018;12.078;2023-02-22T04:15:19;97580.22;;;3.78;76.63
26083;BME280;13848;49.018;12.078;2023-02-22T04:17:45;97571.94;;;3.73;76.69
26083;BME280;13848;49.018;12.078;2023-02-22T04:20:11;97571.09;;;3.72;76.91
26083;BME280;13848;49.018;12.078;2023-02-22T04:22:37;97574.22;;;3.76;77.66
26083;BME280;13848;49.018;12.078;2023-02-22T04:25:05;97578.91;;;3.74;77.57
26083;BME280;13848;49.018;12.078;2023-02-22T04:27:31;97580.56;;;3.75;77.13
26083;BME280;13848;49.018;12.078;2023-02-22T04:29:56;97576.78;;;3.69;77.11
26083;BME280;13848;49.018;12.078;2023-02-22T04:32:22;97574.50;;;3.81;77.16
26083;BME280;13848;49.018;12.078;2023-02-22T04:34:48;97579.09;;;3.72;77.87
26083;BME280;13848;49.018;12.078;2023-02-22T04:37:14;97575.22;;;3.75;78.07
26083;BME280;13848;49.018;12.078;2023-02-22T04:39:40;97573.69;;;3.81;77.85
26083;BME280;13848;49.018;12.078;2023-02-22T04:42:08;97568.16;;;3.82;77.83
26083;BME280;13848;49.018;12.078;2023-02-22T04:44:33;97570.81;;;3.82;77.85
26083;BME280;13848;49.018;12.078;2023-02-22T04:46:59;97566.44;;;3.89;77.70
26083;BME280;13848;49.018;12.078;2023-02-22T04:49:25;97570.66;;;3.98;76.82
26083;BME280;13848;49.018;12.078;2023-02-22T04:51:51;97566.25;;;4.06;77.36
26083;BME280;13848;49.018;12.078;2023-02-22T04:54:17;97568.28;;;4.04;76.88
26083;BME280;13848;49.018;12.078;2023-02-22T04:56:43;97571.88;;;3.96;77.30
26083;BME280;13848;49.018;12.078;2023-02-22T04:59:11;97563.03;;;3.95;77.31
26083;BME280;13848;49.018;12.078;2023-02-22T05:01:37;97571.78;;;3.89;77.73
26083;BME280;13848;49.018;12.078;2023-02-22T05:04:03;97570.00;;;3.82;78.34
26083;BME280;13848;49.018;12.078;2023-02-22T05:06:29;97573.03;;;3.79;78.29
26083;BME280;13848;49.018;12.078;2023-02-22T05:08:55;97574.22;;;3.61;79.16
26083;BME280;13848;49.018;12.078;2023-02-22T05:11:21;97571.00;;;3.66;79.54
26083;BME280;13848;49.018;12.078;2023-02-22T05:13:47;97568.59;;;3.71;79.36
26083;BME280;13848;49.018;12.078;2023-02-22T05:16:15;97569.19;;;3.81;79.87
26083;BME280;13848;49.018;12.078;2023-02-22T05:18:41;97573.78;;;3.87;79.19
26083;BME280;13848;49.018;12.078;2023-02-22T05:21:08;97565.72;;;3.95;78.82
26083;BME280;13848;49.018;12.078;2023-02-22T05:23:34;97565.72;;;3.95;79.16
26083;BME280;13848;49.018;12.078;2023-02-22T05:26:00;97564.59;;;4.05;79.64
26083;BME280;13848;49.018;12.078;2023-02-22T05:28:26;97559.66;;;4.02;79.51
26083;BME280;13848;49.018;12.078;2023-02-22T05:30:52;97565.72;;;3.95;79.79
26083;BME280;13848;49.018;12.078;2023-02-22T05:33:20;97554.66;;;3.98;80.20
26083;BME280;13848;49.018;12.078;2023-02-22T05:35:45;97558.34;;;3.97;79.87
26083;BME280;13848;49.018;12.078;2023-02-22T05:38:12;97556.69;;;3.96;79.54
26083;BME280;13848;49.018;12.078;2023-02-22T05:40:38;97560.00;;;3.98;79.11
26083;BME280;13848;49.018;12.078;2023-02-22T05:43:04;97558.91;;;4.08;79.81
26083;BME280;13848;49.018;12.078;2023-02-22T05:45:30;97551.91;;;4.07;79.49
26083;BME280;13848;49.018;12.078;2023-02-22T05:47:56;97552.28;;;4.04;80.40
26083;BME280;13848;49.018;12.078;2023-02-22T05:50:24;97553.38;;;3.94;80.67
26083;BME280;13848;49.018;12.078;2023-02-22T05:52:51;97555.47;;;3.99;80.90
26083;BME280;13848;49.018;12.078;2023-02-22T05:55:19;97553.38;;;3.94;81.54
26083;BME280;13848;49.018;12.078;2023-02-22T05:57:45;97556.69;;;3.96;81.16
26083;BME280;13848;49.018;12.078;2023-02-22T06:00:15;97550.16;;;3.99;81.47
26083;BME280;13848;49.018;12.078;2023-02-22T06:02:42;97548.25;;;4.08;81.49
26083;BME280;13848;49.018;12.078;2023-02-22T06:05:08;97549.88;;;4.09;81.35
26083;BME280;13848;49.018;12.078;2023-02-22T06:07:35;97555.56;;;4.06;82.08
26083;BME280;13848;49.018;12.078;2023-02-22T06:10:01;97549.53;;;4.12;81.93
26083;BME280;13848;49.018;12.078;2023-02-22T06:12:27;97547.41;;;4.07;81.50
26083;BME280;13848;49.018;12.078;2023-02-22T06:14:53;97542.53;;;4.11;81.59
26083;BME280;13848;49.018;12.078;2023-02-22T06:17:19;97548.13;;;4.16;81.29
26083;BME280;13848;49.018;12.078;2023-02-22T06:19:45;97543.47;;;4.18;81.42
26083;BME280;13848;49.018;12.078;2023-02-22T06:22:15;97539.50;;;4.14;82.25
26083;BME280;13848;49.018;12.078;2023-02-22T06:24:42;97538.13;;;4.18;82.19
26083;BME280;13848;49.018;12.078;2023-02-22T06:27:08;97544.72;;;4.22;83.17
26083;BME280;13848;49.018;12.078;2023-02-22T06:29:34;97540.69;;;4.26;82.33
26083;BME280;13848;49.018;12.078;2023-02-22T06:32:00;97551.81;;;4.30;81.93
26083;BME280;13848;49.018;12.078;2023-02-22T06:34:26;97548.97;;;4.31;82.25
26083;BME280;13848;49.018;12.078;2023-02-22T06:36:52;97559.53;;;4.39;81.01
26083;BME280;13848;49.018;12.078;2023-02-22T06:39:18;97558.69;;;4.39;82.41
26083;BME280;13848;49.018;12.078;2023-02-22T06:41:46;97549.50;;;4.41;82.36
26083;BME280;13848;49.018;12.078;2023-02-22T06:44:13;97561.72;;;4.50;82.38
26083;BME280;13848;49.018;12.078;2023-02-22T06:46:47;97555.91;;;4.62;82.10
26083;BME280;13848;49.018;12.078;2023-02-22T06:49:14;97567.06;;;4.50;82.86
26083;BME280;13848;49.018;12.078;2023-02-22T06:51:40;97569.81;;;4.57;82.01
26083;BME280;13848;49.018;12.078;2023-02-22T06:54:06;97576.72;;;4.51;81.51
26083;BME280;13848;49.018;12.078;2023-02-22T06:56:32;97575.97;;;4.58;81.71
26083;BME280;13848;49.018;12.078;2023-02-22T06:58:59;97572.31;;;4.59;82.27
26083;BME280;13848;49.018;12.078;2023-02-22T07:01:25;97577.91;;;4.64;82.13
26083;BME280;13848;49.018;12.078;2023-02-22T07:03:51;97585.56;;;4.67;82.09
26083;BME280;13848;49.018;12.078;2023-02-22T07:06:17;97585.47;;;4.60;81.68
26083;BME280;13848;49.018;12.078;2023-02-22T07:08:43;97579.59;;;4.65;81.44
26083;BME280;13848;49.018;12.078;2023-02-22T07:11:09;97581.97;;;4.60;81.68
26083;BME280;13848;49.018;12.078;2023-02-22T07:13:35;97583.50;;;4.69;81.18
26083;BME280;13848;49.018;12.078;2023-02-22T07:16:02;97579.47;;;4.73;81.13
26083;BME280;13848;49.018;12.078;2023-02-22T07:18:28;97577.06;;;4.78;81.33
26083;BME280;13848;49.018;12.078;2023-02-22T07:20:54;97574.66;;;4.83;81.23
26083;BME280;13848;49.018;12.078;2023-02-22T07:23:20;97574.84;;;4.82;80.30
26083;BME280;13848;49.018;12.078;2023-02-22T07:25:46;97573.28;;;4.87;80.85
26083;BME280;13848;49.018;12.078;2023-02-22T07:28:12;97570.59;;;4.87;80.64
26083;BME280;13848;49.018;12.078;2023-02-22T07:30:38;97574.19;;;4.79;81.28
26083;BME280;13848;49.018;12.078;2023-02-22T07:33:07;97570.59;;;4.87;81.31
26083;BME280;13848;49.018;12.078;2023-02-22T07:35:35;97568.56;;;4.89;81.38
26083;BME280;13848;49.018;12.078;2023-02-22T07:38:02;97566.16;;;4.94;81.49
26083;BME280;13848;49.018;12.078;2023-02-22T07:40:28;97566.50;;;4.91;81.78
26083;BME280;13848;49.018;12.078;2023-02-22T07:42:56;97569.38;;;4.90;82.05
26083;BME280;13848;49.018;12.078;2023-02-22T07:45:23;97564.94;;;4.97;81.67
26083;BME280;13848;49.018;12.078;2023-02-22T07:47:50;97560.81;;;4.94;82.28
26083;BME280;13848;49.018;12.078;2023-02-22T07:50:19;97561.50;;;5.03;83.09
26083;BME280;13848;49.018;12.078;2023-02-22T07:52:46;97560.47;;;5.04;82.68
26083;BME280;13848;49.018;12.078;2023-02-22T07:55:14;97556.63;;;5.06;82.04
26083;BME280;13848;49.018;12.078;2023-02-22T07:57:40;97561.34;;;5.04;82.40
26083;BME280;13848;49.018;12.078;2023-02-22T08:00:07;97559.72;;;5.10;82.46
26083;BME280;13848;49.018;12.078;2023-02-22T08:02:33;97566.28;;;5.07;81.91
26083;BME280;13848;49.018;12.078;2023-02-22T08:04:59;97565.47;;;5.07;82.14
26083;BME280;13848;49.018;12.078;2023-02-22T08:07:27;97562.84;;;5.14;81.97
26083;BME280;13848;49.018;12.078;2023-02-22T08:09:53;97562.75;;;5.22;82.21
26083;BME280;13848;49.018;12.078;2023-02-22T08:12:19;97560.69;;;5.24;81.97
26083;BME280;13848;49.018;12.078;2023-02-22T08:14:45;97564.19;;;5.24;82.27
26083;BME280;13848;49.018;12.078;2023-02-22T08:17:11;97562.34;;;5.25;81.23
26083;BME280;13848;49.018;12.078;2023-02-22T08:19:37;97559.16;;;5.36;82.06
26083;BME280;13848;49.018;12.078;2023-02-22T08:22:03;97559.16;;;5.36;81.71
26083;BME280;13848;49.018;12.078;2023-02-22T08:24:30;97549.34;;;5.43;81.83
26083;BME280;13848;49.018;12.078;2023-02-22T08:26:56;97557.00;;;5.46;82.08
26083;BME280;13848;49.018;12.078;2023-02-22T08:29:22;97551.50;;;5.54;81.89
26083;BME280;13848;49.018;12.078;2023-02-22T08:31:51;97554.94;;;5.70;80.46
26083;BME280;13848;49.018;12.078;2023-02-22T08:34:17;97558.13;;;5.58;82.26
26083;BME280;13848;49.018;12.078;2023-02-22T08:36:43;97547.78;;;5.77;81.47
26083;BME280;13848;49.018;12.078;2023-02-22T08:39:09;97554.34;;;5.74;81.18
26083;BME280;13848;49.018;12.078;2023-02-22T08:41:36;97549.94;;;5.67;80.52
26083;BME280;13848;49.018;12.078;2023-02-22T08:44:02;97553.59;;;5.59;81.64
26083;BME280;13848;49.018;12.078;2023-02-22T08:46:28;97541.84;;;5.81;81.99
26083;BME280;13848;49.018;12.078;2023-02-22T08:48:54;97551.47;;;5.97;80.99
26083;BME280;13848;49.018;12.078;2023-02-22T08:51:20;97546.97;;;6.04;80.75
26083;BME280;13848;49.018;12.078;2023-02-22T08:53:46;97544.91;;;6.06;80.35
26083;BME280;13848;49.018;12.078;2023-02-22T08:56:12;97543.88;;;6.07;80.03
26083;BME280;13848;49.018;12.078;2023-02-22T08:58:39;97550.25;;;6.06;80.28
26083;BME280;13848;49.018;12.078;2023-02-22T09:01:05;97544.09;;;6.47;80.03
26083;BME280;13848;49.018;12.078;2023-02-22T09:03:31;97541.38;;;6.88;79.77
26083;BME280;13848;49.018;12.078;2023-02-22T09:05:57;97542.06;;;7.10;80.12
26083;BME280;13848;49.018;12.078;2023-02-22T09:08:23;97539.41;;;7.50;78.24
26083;BME280;13848;49.018;12.078;2023-02-22T09:10:50;97544.19;;;7.61;76.83
26083;BME280;13848;49.018;12.078;2023-02-22T09:13:16;97545.81;;;8.02;77.29
26083;BME280;13848;49.018;12.078;2023-02-22T09:15:43;97536.41;;;8.96;77.92
26083;BME280;13848;49.018;12.078;2023-02-22T09:18:11;97538.47;;;9.64;76.02
26083;BME280;13848;49.018;12.078;2023-02-22T09:20:38;97533.41;;;10.17;75.81
26083;BME280;13848;49.018;12.078;2023-02-22T09:23:04;97538.84;;;10.90;71.81
26083;BME280;13848;49.018;12.078;2023-02-22T09:25:30;97534.91;;;11.05;69.34
26083;BME280;13848;49.018;12.078;2023-02-22T09:27:56;97533.53;;;11.14;68.11
26083;BME280;13848;49.018;12.078;2023-02-22T09:30:29;97535.69;;;11.65;66.60
26083;BME280;13848;49.018;12.078;2023-02-22T09:32:58;97535.75;;;12.01;67.89
26083;BME280;13848;49.018;12.078;2023-02-22T09:35:24;97528.22;;;12.03;67.40
26083;BME280;13848;49.018;12.078;2023-02-22T09:37:50;97529.25;;;12.48;65.84
26083;BME280;13848;49.018;12.078;2023-02-22T09:40:17;97522.75;;;12.61;63.66
26083;BME280;13848;49.018;12.078;2023-02-22T09:42:48;97521.97;;;12.37;62.83
26083;BME280;13848;49.018;12.078;2023-02-22T09:45:20;97522.03;;;11.49;64.68
26083;BME280;13848;49.018;12.078;2023-02-22T09:47:49;97517.22;;;11.62;66.15
26083;BME280;13848;49.018;12.078;2023-02-22T09:50:22;97507.84;;;12.59;63.40
26083;BME280;13848;49.018;12.078;2023-02-22T09:52:53;97502.84;;;13.08;64.65
26083;BME280;13848;49.018;12.078;2023-02-22T09:55:27;97514.00;;;13.23;59.51
26083;BME280;13848;49.018;12.078;2023-02-22T09:57:57;97509.78;;;13.03;61.18
26083;BME280;13848;49.018;12.078;2023-02-22T10:00:27;97498.41;;;13.30;59.95
26083;BME280;13848;49.018;12.078;2023-02-22T10:03:02;97505.81;;;13.68;58.87
26083;BME280;13848;49.018;12.078;2023-02-22T10:05:36;97504.66;;;13.47;58.36
26083;BME280;13848;49.018;12.078;2023-02-22T10:08:05;97499.09;;;14.04;59.44
26083;BME280;13848;49.018;12.078;2023-02-22T10:10:37;97494.44;;;14.38;58.74
26083;BME280;13848;49.018;12.078;2023-02-22T10:13:09;97501.63;;;13.61;59.16
26083;BME280;13848;49.018;12.078;2023-02-22T10:15:44;97490.31;;;13.64;58.03
26083;BME280;13848;49.018;12.078;2023-02-22T10:18:35;97490.91;;;14.60;57.03
26083;BME280;13848;49.018;12.078;2023-02-22T10:21:12;97484.38;;;14.00;57.70
26083;BME280;13848;49.018;12.078;2023-02-22T10:23:48;97486.72;;;14.14;57.60
26083;BME280;13848;49.018;12.078;2023-02-22T10:26:21;97474.84;;;14.75;56.41
26083;BME280;13848;49.018;12.078;2023-02-22T10:28:52;97478.19;;;13.21;58.25
26083;BME280;13848;49.018;12.078;2023-02-22T10:31:23;97474.34;;;12.88;59.39
26083;BME280;13848;49.018;12.078;2023-02-22T10:33:54;97473.00;;;13.48;57.23
26083;BME280;13848;49.018;12.078;2023-02-22T10:36:23;97476.59;;;12.39;59.90
26083;BME280;13848;49.018;12.078;2023-02-22T10:38:54;97464.13;;;13.36;57.76
26083;BME280;13848;49.018;12.078;2023-02-22T10:41:26;97467.75;;;12.44;60.39
26083;BME280;13848;49.018;12.078;2023-02-22T10:43:52;97464.38;;;13.05;58.65
26083;BME280;13848;49.018;12.078;2023-02-22T10:46:19;97455.94;;;13.19;58.58
26083;BME280;13848;49.018;12.078;2023-02-22T10:48:49;97450.69;;;14.35;56.31
26083;BME280;13848;49.018;12.078;2023-02-22T10:51:16;97452.84;;;14.77;55.63
26083;BME280;13848;49.018;12.078;2023-02-22T10:53:44;97441.22;;;15.03;54.31
26083;BME280;13848;49.018;12.078;2023-02-22T10:56:19;97440.72;;;14.19;56.06
26083;BME280;13848;49.018;12.078;2023-02-22T10:58:49;97445.75;;;14.32;55.10
26083;BME280;13848;49.018;12.078;2023-02-22T11:01:27;97439.50;;;13.71;57.68
26083;BME280;13848;49.018;12.078;2023-02-22T11:04:00;97438.94;;;14.95;54.39
26083;BME280;13848;49.018;12.078;2023-02-22T11:06:28;97437.25;;;15.16;53.43
26083;BME280;13848;49.018;12.078;2023-02-22T11:09:08;97439.50;;;13.37;57.32
26083;BME280;13848;49.018;12.078;2023-02-22T11:11:35;97438.47;;;14.54;56.02
26083;BME280;13848;49.018;12.078;2023-02-22T11:14:02;97433.25;;;15.56;52.50
26083;BME280;13848;49.018;12.078;2023-02-22T11:16:32;97421.09;;;16.06;52.03
26083;BME280;13848;49.018;12.078;2023-02-22T11:18:59;97420.16;;;17.00;50.55
26083;BME280;13848;49.018;12.078;2023-02-22T11:21:26;97413.06;;;16.94;48.51
26083;BME280;13848;49.018;12.078;2023-02-22T11:24:01;97419.00;;;16.70;49.91
26083;BME280;13848;49.018;12.078;2023-02-22T11:26:36;97410.34;;;16.89;48.83
26083;BME280;13848;49.018;12.078;2023-02-22T11:29:11;97405.19;;;17.33;51.21
26083;BME280;13848;49.018;12.078;2023-02-22T11:31:41;97398.34;;;16.90;50.17
26083;BME280;13848;49.018;12.078;2023-02-22T11:34:24;97397.75;;;16.72;49.74
26083;BME280;13848;49.018;12.078;2023-02-22T11:36:50;97394.81;;;16.94;51.35
26083;BME280;13848;49.018;12.078;2023-02-22T11:39:22;97395.53;;;16.64;50.86
26083;BME280;13848;49.018;12.078;2023-02-22T11:41:50;97380.31;;;18.21;49.50
26083;BME280;13848;49.018;12.078;2023-02-22T11:44:24;97390.75;;;17.94;49.02
26083;BME280;13848;49.018;12.078;2023-02-22T11:46:52;97371.88;;;18.72;47.60
26083;BME280;13848;49.018;12.078;2023-02-22T11:49:19;97372.19;;;17.86;48.34
26083;BME280;13848;49.018;12.078;2023-02-22T11:51:52;97375.34;;;18.28;49.77
26083;BME280;13848;49.018;12.078;2023-02-22T11:54:33;97374.16;;;19.04;45.30
26083;BME280;13848;49.018;12.078;2023-02-22T11:57:13;97369.09;;;18.82;45.07
26083;BME280;13848;49.018;12.078;2023-02-22T11:59:46;97367.31;;;17.42;47.99
26083;BME280;13848;49.018;12.078;2023-02-22T12:02:30;97364.03;;;17.09;48.69
26083;BME280;13848;49.018;12.078;2023-02-22T12:05:13;97365.69;;;17.00;48.80
26083;BME280;13848;49.018;12.078;2023-02-22T12:07:51;97360.78;;;17.38;48.87
26083;BME280;13848;49.018;12.078;2023-02-22T12:10:25;97353.34;;;17.99;48.64
26083;BME280;13848;49.018;12.078;2023-02-22T12:13:04;97345.00;;;18.90;47.54
26083;BME280;13848;49.018;12.078;2023-02-22T12:15:39;97346.28;;;18.58;45.13
26083;BME280;13848;49.018;12.078;2023-02-22T12:18:12;97358.00;;;17.89;45.77
26083;BME280;13848;49.018;12.078;2023-02-22T12:20:45;97359.16;;;17.32;47.76
26083;BME280;13848;49.018;12.078;2023-02-22T12:23:16;97346.53;;;17.97;47.44
26083;BME280;13848;49.018;12.078;2023-02-22T12:25:52;97343.84;;;17.81;47.96
26083;BME280;13848;49.018;12.078;2023-02-22T12:28:26;97336.97;;;18.59;46.10
26083;BME280;13848;49.018;12.078;2023-02-22T12:31:02;97341.13;;;18.96;44.71
26083;BME280;13848;49.018;12.078;2023-02-22T12:33:39;97333.09;;;19.14;44.50
26083;BME280;13848;49.018;12.078;2023-02-22T12:36:10;97333.66;;;19.11;45.55
26083;BME280;13848;49.018;12.078;2023-02-22T12:38:42;97336.59;;;19.20;45.25
26083;BME280;13848;49.018;12.078;2023-02-22T12:41:13;97329.31;;;18.61;44.24
26083;BME280;13848;49.018;12.078;2023-02-22T12:43:48;97327.16;;;17.98;45.93
26083;BME280;13848;49.018;12.078;2023-02-22T12:46:19;97330.56;;;18.84;44.72
26083;BME280;13848;49.018;12.078;2023-02-22T12:48:51;97326.63;;;18.56;45.15
26083;BME280;13848;49.018;12.078;2023-02-22T12:51:24;97322.97;;;18.76;44.20
26083;BME280;13848;49.018;12.078;2023-02-22T12:53:55;97323.66;;;18.47;44.85
26083;BME280;13848;49.018;12.078;2023-02-22T12:56:28;97318.53;;;18.41;45.21
26083;BME280;13848;49.018;12.078;2023-02-22T12:59:00;97321.25;;;18.41;45.34
26083;BME280;13848;49.018;12.078;2023-02-22T13:01:34;97318.25;;;18.37;45.39
26083;BME280;13848;49.018;12.078;2023-02-22T13:04:02;97316.00;;;17.95;44.97
26083;BME280;13848;49.018;12.078;2023-02-22T13:06:41;97314.16;;;17.60;46.55
26083;BME280;13848;49.018;12.078;2023-02-22T13:09:24;97316.66;;;16.90;47.82
26083;BME280;13848;49.018;12.078;2023-02-22T13:12:02;97313.38;;;16.98;47.96
26083;BME280;13848;49.018;12.078;2023-02-22T13:14:43;97314.75;;;16.95;48.72